Time;durP1;ratioP1;P1;durP2;ratioP2;P2;SDS_P1;SDS_P2;PMS_P1;PMS_P2;Temp;Humidity;BMP_temperature;BMP_pressure;BME280_temperature;BME280_humidity;BME280_pressure;Samples;Min_cycle;Max_cycle;Signal;HPM_P1;HPM_P2
2022/05/11 00:02:22;;;;;;;6.50;5.20;;;;;;;15.07;78.92;96530.22;10329772;28;20244;-55
2022/05/11 00:07:22;;;;;;;7.05;5.45;;;;;;;15.21;78.46;96528.56;10329241;28;20190;-54
2022/05/11 00:12:22;;;;;;;5.90;5.28;;;;;;;15.31;77.69;96524.56;10329246;28;20231;-54
2022/05/11 00:17:23;;;;;;;5.57;4.40;;;;;;;15.44;76.95;96510.66;10328891;28;20230;-54
2022/05/11 00:22:23;;;;;;;6.25;4.75;;;;;;;15.51;76.53;96514.16;10328711;28;20241;-54
2022/05/11 00:27:23;;;;;;;5.85;4.65;;;;;;;15.38;77.46;96521.16;10328523;28;20272;-58
2022/05/11 00:32:25;;;;;;;5.57;5.00;;;;;;;15.39;77.76;96526.25;10328502;28;20724;-57
2022/05/11 00:37:28;;;;;;;4.90;4.40;;;;;;;15.45;76.77;96522.03;10328098;28;20775;-55
2022/05/11 00:42:29;;;;;;;5.35;4.75;;;;;;;15.43;77.16;96518.75;10327734;28;20213;-54
2022/05/11 00:47:37;;;;;;;5.60;5.00;;;;;;;15.36;76.98;96510.81;10327305;28;20188;-54
2022/05/11 00:52:43;;;;;;;7.32;4.78;;;;;;;15.41;77.98;96518.16;10327587;28;20210;-55
2022/05/11 00:57:49;;;;;;;5.05;4.55;;;;;;;15.38;77.17;96514.06;10309822;28;20632;-55
2022/05/11 01:02:58;;;;;;;5.85;5.25;;;;;;;15.46;77.57;96511.25;10326692;28;20632;-53
2022/05/11 01:07:58;;;;;;;6.07;4.85;;;;;;;15.44;77.20;96509.84;10327028;28;20218;-56
2022/05/11 01:13:02;;;;;;;8.15;4.93;;;;;;;15.38;77.70;96507.97;10309453;28;20653;-53
2022/05/11 01:18:05;;;;;;;5.30;4.80;;;;;;;15.51;76.53;96494.84;10326729;28;20233;-55
2022/05/11 01:23:17;;;;;;;7.32;5.32;;;;;;;15.41;77.35;96500.47;10326418;28;20269;-53
2022/05/11 01:28:18;;;;;;;6.95;4.82;;;;;;;15.22;78.48;96506.41;10326741;28;20201;-56
2022/05/11 01:33:24;;;;;;;6.18;5.13;;;;;;;15.03;79.56;96511.34;10325840;28;20186;-53
2022/05/11 01:38:42;;;;;;;9.18;5.25;;;;;;;14.99;79.59;96504.78;10326216;28;20214;-55
2022/05/11 01:43:43;;;;;;;7.32;5.20;;;;;;;14.78;80.73;96503.81;10326107;28;20201;-55
2022/05/11 01:48:43;;;;;;;8.23;5.13;;;;;;;14.82;80.18;96498.97;10326105;28;20708;-53
2022/05/11 01:53:45;;;;;;;6.55;5.40;;;;;;;14.71;81.65;96504.75;10325922;28;20573;-53
2022/05/11 01:58:46;;;;;;;5.75;5.20;;;;;;;14.50;82.49;96503.72;10330048;28;20268;-53
2022/05/11 02:03:46;;;;;;;9.05;5.63;;;;;;;14.54;82.39;96502.31;10334268;28;20241;-53
2022/05/11 02:08:47;;;;;;;6.03;5.22;;;;;;;14.52;82.33;96490.34;10333961;28;20701;-53
2022/05/11 02:13:47;;;;;;;8.32;5.38;;;;;;;14.34;83.67;96498.66;10333583;28;20218;-53
2022/05/11 02:18:48;;;;;;;7.68;5.28;;;;;;;14.33;83.18;96497.81;10333204;28;20252;-54
2022/05/11 02:23:50;;;;;;;7.43;5.47;;;;;;;14.19;84.45;96506.56;10393953;22;20243;-60
2022/05/11 02:28:51;;;;;;;6.90;4.80;;;;;;;14.28;83.53;96501.00;10374010;28;20205;-59
2022/05/11 02:33:51;;;;;;;8.13;5.57;;;;;;;14.07;85.47;96509.69;10371127;28;20220;-54
2022/05/11 02:38:52;;;;;;;7.70;6.10;;;;;;;13.82;87.97;96509.16;10372831;28;20694;-58
2022/05/11 02:43:53;;;;;;;15.00;6.22;;;;;;;13.87;87.82;96509.44;10372921;28;20209;-53
2022/05/11 02:48:53;;;;;;;8.05;5.53;;;;;;;13.89;88.58;96511.88;10372479;28;20193;-55
2022/05/11 02:53:53;;;;;;;7.53;6.13;;;;;;;13.75;89.91;96508.22;10372206;28;20300;-56
2022/05/11 02:58:54;;;;;;;7.55;5.88;;;;;;;13.63;91.03;96513.16;10372442;28;20575;-57
2022/05/11 03:03:55;;;;;;;13.48;5.90;;;;;;;13.51;92.10;96509.31;10371842;28;20567;-54
2022/05/11 03:08:55;;;;;;;9.57;6.63;;;;;;;13.43;93.04;96512.03;10371573;28;20562;-56
2022/05/11 03:13:56;;;;;;;9.02;7.00;;;;;;;13.48;92.44;96507.88;10370819;28;20213;-55
2022/05/11 03:18:58;;;;;;;6.85;5.43;;;;;;;13.88;90.30;96500.53;10371107;28;20239;-56
2022/05/11 03:23:59;;;;;;;6.85;5.50;;;;;;;14.00;89.70;96498.25;10370537;28;20778;-56
2022/05/11 03:28:59;;;;;;;9.07;5.82;;;;;;;14.25;88.14;96488.19;10369833;28;20211;-52
2022/05/11 03:39:18;;;;;;;6.38;5.50;;;;;;;14.53;85.56;96484.03;10370513;28;20616;-57
2022/05/11 03:44:19;;;;;;;5.07;4.50;;;;;;;14.76;83.39;96481.25;10370275;28;20232;-52
2022/05/11 03:49:21;;;;;;;6.05;5.22;;;;;;;14.77;83.81;96477.63;10370351;28;20185;-54
2022/05/11 03:54:21;;;;;;;6.95;4.93;;;;;;;14.75;84.06;96472.53;10370201;28;20691;-51
2022/05/11 03:59:22;;;;;;;7.35;5.15;;;;;;;14.90;83.65;96482.19;10369782;28;20230;-55
2022/05/11 04:04:22;;;;;;;7.28;4.88;;;;;;;14.94;83.17;96471.06;10370123;28;20189;-53
2022/05/11 04:09:22;;;;;;;7.30;5.20;;;;;;;15.13;81.28;96474.06;10369910;28;20693;-52
2022/05/11 04:14:23;;;;;;;8.65;6.00;;;;;;;15.41;79.67;96465.34;10369967;28;20578;-54
2022/05/11 04:19:24;;;;;;;23.15;14.25;;;;;;;15.55;79.37;96464.41;10369180;28;20687;-57
2022/05/11 04:24:25;;;;;;;14.00;9.88;;;;;;;15.57;79.76;96472.94;10368387;28;20280;-57
2022/05/11 04:29:25;;;;;;;8.65;6.45;;;;;;;15.56;80.04;96476.63;10368982;28;20200;-55
2022/05/11 04:34:25;;;;;;;7.05;5.05;;;;;;;15.57;80.91;96474.78;10368626;28;20244;-58
2022/05/11 04:39:26;;;;;;;8.73;6.00;;;;;;;15.78;79.40;96476.56;10368608;28;20240;-55
2022/05/11 04:44:26;;;;;;;7.70;5.30;;;;;;;15.93;79.01;96465.88;10368606;28;20255;-54
2022/05/11 04:49:27;;;;;;;7.38;4.82;;;;;;;16.12;78.17;96469.59;10368640;28;20197;-55
2022/05/11 04:54:27;;;;;;;4.38;3.95;;;;;;;16.46;76.05;96462.59;10367891;28;20220;-52
2022/05/11 04:59:28;;;;;;;5.32;4.70;;;;;;;16.66;75.06;96460.81;10368082;28;20192;-57
2022/05/11 05:04:28;;;;;;;5.35;4.28;;;;;;;16.79;74.96;96467.94;10367795;28;20197;-54
2022/05/11 05:09:29;;;;;;;5.15;4.65;;;;;;;16.87;75.09;96478.34;10367855;28;20197;-55
2022/05/11 05:14:29;;;;;;;4.78;4.30;;;;;;;17.04;75.29;96476.13;10367442;28;20225;-55
2022/05/11 05:19:29;;;;;;;7.20;4.43;;;;;;;17.38;72.91;96447.00;10367129;28;20204;-53
2022/05/11 05:24:30;;;;;;;5.25;4.13;;;;;;;17.69;71.89;96448.16;10367675;28;20181;-57
2022/05/11 05:34:50;;;;;;;5.80;4.05;;;;;;;18.08;71.87;96459.69;10366228;28;20221;-59
2022/05/11 05:39:50;;;;;;;4.68;4.03;;;;;;;18.21;71.07;96462.28;10367127;28;20212;-58
2022/05/11 05:44:51;;;;;;;5.32;4.13;;;;;;;18.34;69.96;96442.81;10366994;28;20197;-60
2022/05/11 05:49:51;;;;;;;4.75;4.03;;;;;;;18.16;69.25;96438.22;10366758;28;20209;-60
2022/05/11 05:54:55;;;;;;;6.45;4.30;;;;;;;18.12;70.59;96467.00;10366457;28;20224;-60
2022/05/11 05:59:55;;;;;;;5.10;4.20;;;;;;;18.25;70.65;96463.47;10366521;28;20213;-60
2022/05/11 06:04:55;;;;;;;8.13;4.47;;;;;;;18.14;71.18;96470.25;10366695;28;20272;-59
2022/05/11 06:09:56;;;;;;;4.35;3.95;;;;;;;18.20;71.47;96473.91;10365977;28;20694;-59
2022/05/11 06:14:56;;;;;;;4.60;4.15;;;;;;;18.37;71.35;96463.63;10364693;28;20213;-59
2022/05/11 06:19:56;;;;;;;7.20;3.97;;;;;;;18.45;71.72;96481.13;10365667;28;20727;-57
2022/05/11 06:24:57;;;;;;;5.13;4.18;;;;;;;18.65;71.67;96478.34;10366178;28;20189;-57
2022/05/11 06:29:59;;;;;;;5.13;3.85;;;;;;;18.59;71.70;96480.06;10366079;28;20247;-60
2022/05/11 06:35:00;;;;;;;6.00;3.80;;;;;;;18.70;71.12;96462.63;10365433;28;20229;-59
2022/05/11 06:40:00;;;;;;;4.45;3.75;;;;;;;18.76;72.32;96477.69;10364627;28;20221;-59
2022/05/11 06:45:00;;;;;;;5.75;4.53;;;;;;;18.94;70.61;96460.25;10368107;28;20555;-60
2022/05/11 06:50:01;;;;;;;4.25;3.83;;;;;;;18.94;70.86;96465.56;10373053;28;20221;-57
2022/05/11 07:00:20;;;;;;;5.60;4.53;;;;;;;18.96;72.31;96493.50;10367488;28;20620;-56
2022/05/11 07:05:20;;;;;;;6.75;4.47;;;;;;;19.49;70.96;96470.19;10370136;28;20189;-59
2022/05/11 07:10:21;;;;;;;5.43;4.05;;;;;;;19.56;69.87;96468.31;10371214;28;20213;-59
2022/05/11 07:15:22;;;;;;;7.88;4.10;;;;;;;19.84;68.43;96459.03;10370503;28;20217;-59
2022/05/11 07:20:30;;;;;;;4.45;3.97;;;;;;;20.16;68.35;96458.88;10369095;28;20291;-60
2022/05/11 07:25:31;;;;;;;6.95;4.32;;;;;;;20.09;66.44;96427.03;10340623;28;20190;-60
2022/05/11 07:30:37;;;;;;;4.82;4.30;;;;;;;20.28;67.14;96441.13;10329182;28;20276;-60
2022/05/11 07:35:38;;;;;;;8.13;3.75;;;;;;;20.59;66.40;96424.09;10329230;28;20214;-57
2022/05/11 07:40:40;;;;;;;10.32;4.47;;;;;;;20.39;68.08;96444.88;10328804;28;20596;-60
2022/05/11 07:45:41;;;;;;;4.80;4.35;;;;;;;20.67;66.31;96425.66;10328585;28;20269;-60
2022/05/11 07:50:41;;;;;;;4.93;3.78;;;;;;;20.91;66.17;96420.41;10349257;28;20215;-59
2022/05/11 07:55:42;;;;;;;4.18;3.70;;;;;;;21.14;65.99;96419.59;10368142;28;20243;-60
2022/05/11 08:00:42;;;;;;;5.60;3.55;;;;;;;21.76;63.21;96379.16;10368947;28;20208;-59
2022/05/11 08:05:43;;;;;;;6.97;4.38;;;;;;;21.79;62.95;96376.00;10368773;28;20757;-58
2022/05/11 08:10:46;;;;;;;5.15;3.88;;;;;;;21.70;61.69;96356.88;10368332;28;20299;-59
2022/05/11 08:15:49;;;;;;;5.95;4.20;;;;;;;21.42;61.93;96356.81;10368374;28;20291;-60
2022/05/11 08:20:50;;;;;;;14.77;3.53;;;;;;;21.50;60.60;96338.63;10395575;22;20291;-57
2022/05/11 08:25:54;;;;;;;4.00;3.42;;;;;;;21.76;60.70;96331.16;10411811;28;20266;-60
2022/05/11 08:36:19;;;;;;;4.85;3.50;;;;;;;22.19;59.07;96318.31;10411325;28;20798;-57
2022/05/11 08:41:38;;;;;;;5.03;3.33;;;;;;;22.06;57.23;96271.41;10410353;28;20216;-56
2022/05/11 08:46:43;;;;;;;11.18;3.55;;;;;;;22.96;55.85;96264.28;10408227;28;20193;-54
2022/05/11 08:58:11;;;;;;;4.25;3.35;;;;;;;23.07;54.23;96238.50;10402574;28;20248;-53
2022/05/11 09:03:34;;;;;;;4.95;3.22;;;;;;;24.69;51.24;96197.81;10405333;28;20247;-56
2022/05/11 09:08:38;;;;;;;5.88;3.30;;;;;;;24.43;53.03;96253.84;10388554;28;20205;-55
2022/05/11 09:13:39;;;;;;;4.05;3.75;;;;;;;22.86;54.35;96257.97;10406312;28;20217;-54
2022/05/11 09:18:40;;;;;;;9.13;2.88;;;;;;;23.95;53.48;96251.03;10406914;28;20582;-58
2022/05/11 09:23:43;;;;;;;5.30;3.65;;;;;;;24.33;53.11;96259.09;10406195;28;20251;-58
2022/05/11 09:28:45;;;;;;;4.38;3.60;;;;;;;22.64;55.36;96276.63;10405092;28;20196;-58
2022/05/11 09:34:01;;;;;;;5.80;3.00;;;;;;;23.53;51.88;96224.88;10406152;28;20254;-55
2022/05/11 09:39:13;;;;;;;5.97;3.00;;;;;;;24.70;51.66;96264.50;10406143;28;20192;-59
2022/05/11 09:44:20;;;;;;;3.20;2.90;;;;;;;24.07;48.05;96138.47;10406209;28;20275;-57
2022/05/11 09:49:21;;;;;;;6.97;2.60;;;;;;;25.34;49.24;96203.72;10404754;28;20192;-57
2022/05/11 09:54:23;;;;;;;5.60;3.17;;;;;;;23.98;50.33;96193.50;10404757;28;20208;-54
2022/05/11 09:59:49;;;;;;;4.65;2.70;;;;;;;24.38;47.72;96131.44;10386514;28;20212;-58
2022/05/11 10:05:07;;;;;;;4.80;2.88;;;;;;;24.84;49.04;96184.47;10405621;28;20627;-58
2022/05/11 10:10:43;;;;;;;4.38;2.65;;;;;;;24.67;48.00;96160.56;10387745;28;20611;-57
2022/05/11 10:26:40;;;;;;;4.60;2.92;;;;;;;25.24;45.34;96088.41;10410283;28;20189;-57
2022/05/11 10:32:30;;;;;;;3.97;2.63;;;;;;;25.52;46.62;96140.75;10412111;28;20224;-55
2022/05/11 10:38:01;;;;;;;4.95;2.67;;;;;;;25.09;46.67;96132.03;10342008;28;20239;-53
2022/05/11 10:43:32;;;;;;;3.25;2.92;;;;;;;24.92;45.20;96079.47;10412339;28;20660;-58
2022/05/11 10:48:45;;;;;;;4.57;2.55;;;;;;;24.86;44.92;96059.09;10412754;28;20537;-56
2022/05/11 10:54:11;;;;;;;6.47;2.67;;;;;;;24.98;44.51;96050.00;10394835;28;20714;-59
2022/05/11 10:59:50;;;;;;;5.00;2.70;;;;;;;25.84;45.13;96093.28;10358078;28;20211;-57
2022/05/11 11:05:06;;;;;;;3.80;2.22;;;;;;;25.03;43.98;96031.25;10409353;28;20277;-57
2022/05/11 11:10:18;;;;;;;6.20;3.00;;;;;;;24.98;44.58;96050.00;10392080;28;20280;-61
2022/05/11 11:15:22;;;;;;;2.92;2.53;;;;;;;25.20;44.05;96037.16;10407516;28;20255;-60
2022/05/11 11:20:24;;;;;;;4.63;2.85;;;;;;;25.04;45.61;96073.88;10392724;28;20235;-60
2022/05/11 11:25:24;;;;;;;3.25;2.72;;;;;;;25.68;45.65;96095.16;10393276;28;20180;-60
2022/05/11 11:30:25;;;;;;;7.03;2.92;;;;;;;26.46;44.20;96073.31;10408792;28;20208;-59
2022/05/11 11:35:26;;;;;;;3.42;2.30;;;;;;;25.50;41.34;95967.75;10409165;28;20220;-60
2022/05/11 11:40:29;;;;;;;5.25;2.65;;;;;;;25.28;43.33;96009.84;10410542;28;20220;-59
2022/05/11 11:45:29;;;;;;;2.55;2.13;;;;;;;26.02;43.06;96019.47;10409750;28;20235;-55
2022/05/11 11:50:55;;;;;;;2.40;2.20;;;;;;;25.54;42.62;95980.34;10409405;28;20331;-60
2022/05/11 11:56:25;;;;;;;4.95;2.45;;;;;;;26.28;43.70;96033.59;10409261;28;20311;-57
2022/05/11 12:01:26;;;;;;;6.85;2.78;;;;;;;26.38;42.15;95985.25;10409927;28;20297;-60
2022/05/11 12:17:08;;;;;;;4.55;2.40;;;;;;;26.37;40.43;95924.56;10411001;28;20220;-57
2022/05/11 12:22:22;;;;;;;2.40;2.20;;;;;;;25.79;41.83;95941.16;10448399;28;20737;-57
2022/05/11 12:27:26;;;;;;;5.88;2.40;;;;;;;26.49;42.68;95986.00;10432123;28;20242;-56
2022/05/11 12:32:32;;;;;;;2.58;2.00;;;;;;;26.79;40.39;95930.50;10449363;28;20232;-59
2022/05/11 12:37:35;;;;;;;7.35;1.90;;;;;;;26.90;39.06;95882.88;10441810;28;20247;-59
2022/05/11 12:42:42;;;;;;;7.22;2.47;;;;;;;27.16;39.16;95905.75;10406823;28;20209;-60
2022/05/11 12:47:49;;;;;;;4.07;1.90;;;;;;;25.93;39.33;95858.19;10407918;28;20263;-59
2022/05/11 12:53:17;;;;;;;3.95;2.30;;;;;;;25.95;40.88;95909.69;10389760;28;20223;-56
2022/05/11 12:58:26;;;;;;;2.72;2.10;;;;;;;26.91;39.30;95911.31;10406364;28;20285;-59
2022/05/11 13:03:37;;;;;;;2.42;2.22;;;;;;;27.28;38.90;95891.94;10405313;28;20668;-60
2022/05/11 13:08:42;;;;;;;2.78;2.30;;;;;;;26.39;40.92;95910.88;10407151;28;20568;-59
2022/05/11 13:13:44;;;;;;;2.95;2.30;;;;;;;26.86;41.60;95939.88;10406706;28;20306;-58
2022/05/11 13:18:46;;;;;;;2.80;2.50;;;;;;;27.05;38.45;95842.41;10406416;28;20220;-60
2022/05/11 13:23:46;;;;;;;4.57;2.15;;;;;;;28.48;35.97;95812.13;10405818;28;21086;-59
2022/05/11 13:29:02;;;;;;;4.28;2.25;;;;;;;26.78;40.37;95878.63;10407094;28;20184;-58
2022/05/11 13:34:04;;;;;;;3.60;2.33;;;;;;;27.69;39.39;95882.66;10404035;28;20224;-60
2022/05/11 13:39:11;;;;;;;3.97;2.72;;;;;;;27.65;40.05;95890.50;10405901;28;20278;-60
2022/05/11 13:44:15;;;;;;;4.25;2.58;;;;;;;29.45;37.02;95866.38;10405863;28;20278;-60
2022/05/11 13:49:16;;;;;;;4.45;2.50;;;;;;;25.60;41.22;95861.25;10406077;28;20259;-59
2022/05/11 13:54:21;;;;;;;4.95;2.80;;;;;;;26.60;40.17;95861.31;10409604;28;20208;-59
2022/05/11 13:59:23;;;;;;;2.40;2.20;;;;;;;27.24;39.12;95839.78;10414170;28;20199;-60
2022/05/11 14:04:32;;;;;;;2.63;2.20;;;;;;;27.52;37.76;95807.75;10414904;28;20223;-59
2022/05/11 14:09:34;;;;;;;3.85;2.55;;;;;;;28.17;37.56;95819.91;10412162;28;20204;-58
2022/05/11 14:14:34;;;;;;;4.97;2.58;;;;;;;26.28;41.64;95876.00;10413358;28;20771;-57
2022/05/11 14:19:36;;;;;;;3.37;2.20;;;;;;;26.78;40.00;95829.47;10413684;28;20208;-57
2022/05/11 14:24:37;;;;;;;3.50;2.50;;;;;;;27.41;39.53;95831.28;10416408;22;20495;-59
2022/05/11 14:29:37;;;;;;;4.95;2.63;;;;;;;26.57;40.46;95824.25;10413668;28;20572;-61
2022/05/11 14:34:39;;;;;;;5.00;2.60;;;;;;;28.45;37.17;95796.56;10412495;28;20254;-61
2022/05/11 14:39:40;;;;;;;4.00;2.58;;;;;;;27.27;39.39;95812.31;10410636;28;20200;-60
2022/05/11 14:44:40;;;;;;;3.65;2.30;;;;;;;28.97;34.99;95726.41;10412284;28;20208;-60
2022/05/11 14:49:41;;;;;;;4.45;2.42;;;;;;;29.04;36.56;95788.84;10412522;28;20197;-59
2022/05/11 14:54:42;;;;;;;7.18;2.50;;;;;;;27.80;37.48;95748.78;10411338;28;20274;-59
2022/05/11 15:05:04;;;;;;;4.20;2.47;;;;;;;28.81;36.74;95780.63;10410885;28;20217;-60
2022/05/11 15:10:05;;;;;;;5.03;2.75;;;;;;;27.85;38.70;95794.44;10410269;28;20191;-59
2022/05/11 15:15:06;;;;;;;4.88;2.38;;;;;;;28.55;37.21;95747.09;10411776;28;20224;-60
2022/05/11 15:20:10;;;;;;;3.00;2.70;;;;;;;28.76;37.95;95798.78;10411562;28;20658;-58
2022/05/11 15:25:11;;;;;;;3.97;2.53;;;;;;;28.18;38.38;95773.81;10411380;28;20225;-60
2022/05/11 15:30:13;;;;;;;2.50;2.30;;;;;;;28.31;37.81;95774.16;10411074;28;20211;-59
2022/05/11 15:35:15;;;;;;;5.60;2.70;;;;;;;27.31;38.60;95739.94;10410591;28;20722;-62
2022/05/11 15:40:16;;;;;;;2.60;2.40;;;;;;;27.31;39.57;95773.03;10411373;28;20557;-60
2022/05/11 15:45:17;;;;;;;8.80;2.63;;;;;;;28.78;36.69;95756.97;10382532;28;20224;-59
2022/05/11 15:50:18;;;;;;;3.88;2.35;;;;;;;28.42;36.47;95732.50;10393402;28;20207;-56
2022/05/11 15:55:20;;;;;;;4.05;2.40;;;;;;;27.15;39.55;95769.72;10410948;28;20292;-60
2022/05/11 16:00:23;;;;;;;5.47;2.65;;;;;;;28.47;37.96;95768.25;10409453;28;20689;-59
2022/05/11 16:05:24;;;;;;;6.03;2.92;;;;;;;27.79;37.93;95747.16;10406878;28;20266;-60
2022/05/11 16:10:24;;;;;;;4.97;2.60;;;;;;;26.76;39.66;95753.72;10386834;28;20574;-61
2022/05/11 16:15:25;;;;;;;3.10;2.57;;;;;;;26.39;40.20;95769.31;10388037;28;20221;-60
2022/05/11 16:20:25;;;;;;;4.22;3.20;;;;;;;25.88;41.63;95793.78;10392134;28;20446;-60
2022/05/11 16:25:25;;;;;;;6.22;2.90;;;;;;;24.97;44.25;95834.03;10405086;28;20232;-60
2022/05/11 16:30:26;;;;;;;6.70;3.47;;;;;;;24.77;45.50;95856.28;10410579;28;20199;-61
2022/05/11 16:35:26;;;;;;;3.95;2.90;;;;;;;25.58;44.78;95860.72;10388782;28;20256;-61
2022/05/11 16:40:29;;;;;;;3.20;2.80;;;;;;;24.87;44.49;95830.28;10387082;28;20278;-59
2022/05/11 16:45:30;;;;;;;3.30;2.83;;;;;;;24.88;44.15;95825.72;10392551;28;20217;-60
2022/05/11 16:50:30;;;;;;;8.10;2.67;;;;;;;24.86;43.68;95811.81;10367246;28;20660;-60
2022/05/11 16:55:31;;;;;;;4.60;2.83;;;;;;;24.15;46.15;95859.66;10383320;28;20237;-61
2022/05/11 17:00:31;;;;;;;2.70;2.50;;;;;;;24.52;46.95;95892.66;10377838;28;20240;-59
2022/05/11 17:05:32;;;;;;;4.78;2.70;;;;;;;24.44;47.72;95909.22;10372658;28;20274;-59
2022/05/11 17:10:33;;;;;;;3.97;2.75;;;;;;;24.66;47.64;95911.72;10407652;28;20189;-59
2022/05/11 17:15:34;;;;;;;6.78;4.70;;;;;;;24.66;48.11;95920.56;10407727;28;20225;-60
2022/05/11 17:20:39;;;;;;;6.53;3.63;;;;;;;24.80;47.71;95922.72;10396448;28;20197;-60
2022/05/11 17:25:40;;;;;;;6.97;2.70;;;;;;;24.52;46.04;95855.19;10405156;28;20245;-61
2022/05/11 17:30:40;;;;;;;4.28;2.40;;;;;;;23.80;46.02;95853.09;10406717;28;20571;-63
2022/05/11 17:35:41;;;;;;;6.90;2.20;;;;;;;23.58;45.88;95836.44;10407017;28;20913;-62
2022/05/11 17:40:43;;;;;;;8.43;2.40;;;;;;;23.29;46.97;95852.84;10407632;28;20193;-62
2022/05/11 17:45:44;;;;;;;3.97;2.53;;;;;;;23.16;47.53;95872.84;10406894;28;20816;-62
2022/05/11 17:50:46;;;;;;;5.47;3.08;;;;;;;23.06;48.21;95894.09;10406860;28;20196;-61
2022/05/11 17:55:46;;;;;;;7.53;3.17;;;;;;;22.33;49.96;95924.69;10385371;28;20718;-59
2022/05/11 18:00:49;;;;;;;3.45;2.45;;;;;;;21.89;51.47;95946.81;10371601;28;20192;-56
2022/05/11 18:05:50;;;;;;;6.40;2.60;;;;;;;21.60;53.55;95988.03;10397512;28;20239;-60
2022/05/11 18:10:51;;;;;;;14.50;3.28;;;;;;;21.03;54.67;95987.13;10406867;28;20203;-59
2022/05/11 18:15:51;;;;;;;3.03;2.58;;;;;;;20.90;54.27;95980.22;10406491;28;20231;-61
2022/05/11 18:20:52;;;;;;;4.13;2.75;;;;;;;20.72;53.85;95969.78;10403585;28;20204;-58
2022/05/11 18:25:52;;;;;;;4.03;2.55;;;;;;;20.28;55.63;95989.72;10404056;28;20290;-59
2022/05/11 18:30:54;;;;;;;3.30;2.78;;;;;;;19.81;57.57;96027.03;10406668;28;20219;-60
2022/05/11 18:35:55;;;;;;;8.60;2.85;;;;;;;19.52;57.92;96029.53;10405760;28;20229;-59
2022/05/11 18:40:56;;;;;;;4.82;2.67;;;;;;;19.42;59.49;96066.50;10408926;28;20291;-60
2022/05/11 18:46:03;;;;;;;7.40;2.42;;;;;;;18.48;63.28;96123.44;10411632;28;20362;-56
2022/05/11 18:51:03;;;;;;;6.10;3.00;;;;;;;18.23;64.26;96125.34;10412668;28;20196;-59
2022/05/11 18:56:04;;;;;;;4.22;2.58;;;;;;;18.24;64.02;96113.69;10413286;28;20220;-53
2022/05/11 19:01:04;;;;;;;4.47;2.80;;;;;;;18.11;64.55;96112.78;10412977;28;20533;-57
2022/05/11 19:06:05;;;;;;;5.68;3.13;;;;;;;18.21;64.97;96122.06;10411743;28;20212;-54
2022/05/11 19:11:05;;;;;;;9.05;3.17;;;;;;;18.46;63.99;96100.81;10411538;28;20231;-53
2022/05/11 19:16:06;;;;;;;10.65;3.40;;;;;;;18.50;64.11;96104.66;10410256;28;20231;-57
2022/05/11 19:21:06;;;;;;;12.32;3.95;;;;;;;18.43;64.33;96112.66;10408448;28;21018;-60
2022/05/11 19:26:06;;;;;;;7.20;4.10;;;;;;;18.31;65.08;96106.47;10411500;28;20232;-59
2022/05/11 19:31:10;;;;;;;5.25;3.80;;;;;;;18.18;65.36;96112.75;10412083;28;20213;-59
2022/05/11 19:36:11;;;;;;;5.35;3.70;;;;;;;18.15;65.15;96105.22;10411444;28;20224;-56
2022/05/11 19:41:15;;;;;;;6.55;3.92;;;;;;;18.04;65.53;96098.81;10411547;28;20188;-57
2022/05/11 19:46:16;;;;;;;4.80;3.50;;;;;;;17.79;66.36;96106.75;10411210;28;20271;-54
2022/05/11 19:51:17;;;;;;;7.15;3.30;;;;;;;17.89;65.66;96088.53;10410478;28;20200;-55
2022/05/11 19:56:19;;;;;;;6.97;3.72;;;;;;;18.07;64.66;96071.03;10411282;28;20229;-53
2022/05/11 20:01:20;;;;;;;7.68;3.38;;;;;;;18.12;64.03;96061.41;10410626;28;20208;-53
2022/05/11 20:06:21;;;;;;;4.00;3.22;;;;;;;18.02;64.21;96055.00;10410558;28;20296;-54
2022/05/11 20:11:24;;;;;;;4.35;3.25;;;;;;;17.91;64.54;96062.63;10410781;28;20647;-57
2022/05/11 20:16:24;;;;;;;3.95;3.05;;;;;;;18.06;63.58;96040.28;10409809;28;20591;-55
2022/05/11 20:21:25;;;;;;;6.70;3.50;;;;;;;17.93;64.13;96043.84;10410675;28;20197;-55
2022/05/11 20:26:25;;;;;;;5.28;2.78;;;;;;;18.09;63.07;96024.72;10409620;28;20234;-53
2022/05/11 20:36:46;;;;;;;4.82;3.10;;;;;;;18.31;62.03;96019.78;10409265;28;20232;-58
2022/05/11 20:41:47;;;;;;;8.88;3.30;;;;;;;18.50;61.14;95994.06;10409654;28;20845;-56
2022/05/11 20:46:48;;;;;;;3.35;2.85;;;;;;;18.53;61.25;96006.88;10407418;28;20220;-57
2022/05/11 20:51:48;;;;;;;9.38;3.15;;;;;;;18.78;60.18;95986.53;10409165;28;20219;-57
2022/05/11 20:56:51;;;;;;;5.28;3.05;;;;;;;18.96;59.70;95980.38;10408757;28;20232;-59
2022/05/11 21:01:51;;;;;;;5.68;3.10;;;;;;;19.16;59.19;95982.75;10408303;28;20181;-59
2022/05/11 21:06:52;;;;;;;3.17;2.88;;;;;;;19.19;59.11;95985.72;10407927;28;20214;-59
2022/05/11 21:11:52;;;;;;;4.55;3.15;;;;;;;19.20;59.07;95984.72;10408373;28;20242;-60
2022/05/11 21:16:53;;;;;;;6.03;3.38;;;;;;;19.04;60.04;96007.41;10408090;28;20239;-59
2022/05/11 21:21:53;;;;;;;7.45;3.35;;;;;;;19.18;59.81;95997.38;10408166;28;20283;-59
2022/05/11 21:26:53;;;;;;;10.38;3.47;;;;;;;19.02;60.29;96001.53;10407959;28;20248;-57
2022/05/11 21:31:55;;;;;;;5.47;3.50;;;;;;;18.98;60.66;96000.34;10408655;28;20196;-57
2022/05/11 21:36:55;;;;;;;8.20;3.30;;;;;;;18.81;61.57;96021.38;10409990;28;20224;-59
2022/05/11 21:41:56;;;;;;;4.18;3.40;;;;;;;19.00;61.11;96008.09;10414498;28;20223;-56
2022/05/11 21:46:57;;;;;;;4.63;3.45;;;;;;;19.11;60.76;96009.97;10411255;28;20204;-55
2022/05/11 21:51:57;;;;;;;7.90;3.65;;;;;;;19.10;60.91;96010.19;10407754;28;20200;-56
2022/05/11 21:56:58;;;;;;;5.65;3.45;;;;;;;18.91;61.93;96017.41;10407698;28;20603;-56
2022/05/11 22:01:58;;;;;;;4.50;3.97;;;;;;;18.79;62.18;96023.47;10407501;28;20556;-59
2022/05/11 22:06:59;;;;;;;3.65;3.30;;;;;;;19.06;61.51;96013.28;10406879;28;20203;-56
2022/05/11 22:11:59;;;;;;;4.63;3.88;;;;;;;19.09;61.27;96012.03;10407211;28;20563;-58
2022/05/11 22:17:00;;;;;;;4.47;3.58;;;;;;;19.12;61.29;96013.44;10412795;28;20229;-54
2022/05/11 22:22:00;;;;;;;6.35;3.38;;;;;;;19.28;60.51;96001.31;10415303;28;20254;-57
2022/05/11 22:27:01;;;;;;;6.68;3.30;;;;;;;19.36;60.18;95996.50;10414443;28;20302;-57
2022/05/11 22:32:02;;;;;;;4.65;3.55;;;;;;;19.61;59.47;95980.31;10414495;28;20199;-58
2022/05/11 22:37:03;;;;;;;5.28;3.40;;;;;;;19.37;59.96;95991.97;10414354;28;20628;-57
2022/05/11 22:42:04;;;;;;;4.85;2.95;;;;;;;19.66;58.75;95976.16;10413975;28;20193;-58
2022/05/11 22:47:04;;;;;;;5.93;3.20;;;;;;;19.73;58.61;95964.38;10413511;28;20235;-56
2022/05/11 22:52:05;;;;;;;4.28;3.25;;;;;;;19.70;58.52;95970.16;10413622;28;20192;-55
2022/05/11 22:57:06;;;;;;;4.85;3.33;;;;;;;19.88;57.60;95950.63;10413416;28;20725;-58
2022/05/11 23:02:06;;;;;;;5.07;3.20;;;;;;;19.77;57.85;95957.59;10413688;28;20192;-56
2022/05/11 23:07:06;;;;;;;5.93;3.78;;;;;;;19.78;57.74;95950.41;10413009;28;20216;-58
2022/05/11 23:12:07;;;;;;;5.88;3.00;;;;;;;19.77;57.77;95951.47;10413616;28;20195;-57
2022/05/11 23:17:08;;;;;;;7.28;3.38;;;;;;;19.76;57.50;95942.63;10412369;28;20224;-54
2022/05/11 23:22:08;;;;;;;9.70;3.58;;;;;;;19.79;57.15;95930.78;10412777;28;20208;-53
2022/05/11 23:27:08;;;;;;;4.80;3.10;;;;;;;19.83;56.78;95931.09;10411514;28;20232;-58
2022/05/11 23:32:09;;;;;;;5.07;2.92;;;;;;;19.73;57.07;95939.66;10411978;28;20279;-52
2022/05/11 23:37:09;;;;;;;4.32;2.47;;;;;;;19.81;56.51;95939.31;10412125;28;20236;-51
2022/05/11 23:42:09;;;;;;;5.53;3.30;;;;;;;19.72;56.88;95941.47;10412945;28;20203;-59
2022/05/11 23:47:10;;;;;;;6.05;2.90;;;;;;;19.86;56.23;95928.81;10411874;28;20208;-59
2022/05/11 23:52:13;;;;;;;5.97;2.80;;;;;;;20.08;55.18;95914.88;10411579;28;20197;-54
2022/05/11 23:57:13;;;;;;;6.15;3.10;;;;;;;19.89;55.92;95927.50;10410878;28;20666;-58
